createdAt,value
2023-04-10T00:02:25.870Z,98945.34
2023-04-10T00:04:53.010Z,98941.81
2023-04-10T00:07:19.895Z,98938.28
2023-04-10T00:09:46.604Z,98934.75
2023-04-10T00:12:14.553Z,98937.56
2023-04-10T00:14:41.484Z,98926.00
2023-04-10T00:17:08.216Z,98921.69
2023-04-10T00:19:34.917Z,98916.31
2023-04-10T00:22:01.669Z,98918.06
2023-04-10T00:24:28.380Z,98913.75
2023-04-10T00:26:56.853Z,98921.72
2023-04-10T00:29:24.395Z,98920.00
2023-04-10T00:31:51.254Z,98915.56
2023-04-10T00:34:17.991Z,98913.19
2023-04-10T00:36:46.789Z,98916.53
2023-04-10T00:39:14.194Z,98906.75
2023-04-10T00:41:41.136Z,98907.63
2023-04-10T00:44:08.701Z,98912.81
2023-04-10T00:46:37.830Z,98900.44
2023-04-10T00:49:04.847Z,98906.56
2023-04-10T00:51:33.155Z,98915.34
2023-04-10T00:54:02.218Z,98909.09
2023-04-10T00:56:32.170Z,98909.06
2023-04-10T00:58:58.932Z,98916.41
2023-04-10T01:01:26.232Z,98918.94
2023-04-10T01:03:54.671Z,98912.59
2023-04-10T01:06:21.643Z,98916.16
2023-04-10T01:09:03.996Z,98914.31
2023-04-10T01:11:52.500Z,98913.50
2023-04-10T01:14:38.047Z,98915.47
2023-04-10T01:17:30.490Z,98909.25
2023-04-10T01:20:31.656Z,98903.97
2023-04-10T01:23:26.754Z,98904.03
2023-04-10T01:26:14.110Z,98902.31
2023-04-10T01:28:56.127Z,98895.25
2023-04-10T01:31:38.271Z,98891.69
2023-04-10T01:34:09.326Z,98902.22
2023-04-10T01:36:45.187Z,98898.84
2023-04-10T01:39:12.439Z,98893.50
2023-04-10T01:41:43.961Z,98899.00
2023-04-10T01:44:15.097Z,98900.72
2023-04-10T01:46:44.679Z,98902.50
2023-04-10T01:49:13.292Z,98890.16
2023-04-10T01:51:40.642Z,98882.19
2023-04-10T01:54:10.698Z,98877.00
2023-04-10T01:56:38.485Z,98869.00
2023-04-10T01:59:06.475Z,98867.31
2023-04-10T02:01:33.272Z,98865.59
2023-04-10T02:04:00.610Z,98863.94
2023-04-10T02:06:36.531Z,98865.72
2023-04-10T02:09:32.682Z,98865.59
2023-04-10T02:12:04.741Z,98856.06
2023-04-10T02:14:33.330Z,98861.28
2023-04-10T02:17:02.640Z,98854.25
2023-04-10T02:19:33.136Z,98856.88
2023-04-10T02:22:00.138Z,98855.31
2023-04-10T02:24:27.454Z,98856.94
2023-04-10T02:26:54.182Z,98847.34
2023-04-10T02:29:21.411Z,98842.97
2023-04-10T02:31:49.002Z,98838.63
2023-04-10T02:34:18.324Z,98842.34
2023-04-10T02:36:45.148Z,98843.06
2023-04-10T02:39:12.611Z,98831.59
2023-04-10T02:41:47.479Z,98839.59
2023-04-10T02:44:14.572Z,98838.75
2023-04-10T02:46:42.146Z,98843.09
2023-04-10T02:49:09.359Z,98844.88
2023-04-10T02:51:36.676Z,98831.75
2023-04-10T02:54:04.509Z,98830.84
2023-04-10T02:56:35.874Z,98845.00
2023-04-10T02:59:03.398Z,98837.97
2023-04-10T03:01:31.194Z,98840.69
2023-04-10T03:03:58.864Z,98841.59
2023-04-10T03:06:32.902Z,98835.47
2023-04-10T03:08:59.660Z,98838.97
2023-04-10T03:11:27.527Z,98848.66
2023-04-10T03:14:00.336Z,98839.88
2023-04-10T03:16:27.121Z,98837.16
2023-04-10T03:18:53.956Z,98838.00
2023-04-10T03:21:21.457Z,98830.97
2023-04-10T03:23:49.075Z,98828.41
2023-04-10T03:26:15.851Z,98829.28
2023-04-10T03:28:42.561Z,98836.28
2023-04-10T03:31:12.316Z,98831.91
2023-04-10T03:33:40.635Z,98830.28
2023-04-10T03:36:08.141Z,98832.81
2023-04-10T03:38:34.922Z,98824.13
2023-04-10T03:41:02.475Z,98818.91
2023-04-10T03:43:31.811Z,98813.72
2023-04-10T03:46:00.124Z,98810.19
2023-04-10T03:48:28.536Z,98819.91
2023-04-10T03:50:58.551Z,98813.78
2023-04-10T03:53:25.398Z,98810.28
2023-04-10T03:55:53.902Z,98813.72
2023-04-10T03:58:22.319Z,98814.59
2023-04-10T04:00:49.520Z,98811.09
2023-04-10T04:03:29.046Z,98811.09
2023-04-10T04:05:56.247Z,98809.31
2023-04-10T04:08:27.963Z,98800.53
2023-04-10T04:11:08.658Z,98796.22
2023-04-10T04:13:44.157Z,98795.34
2023-04-10T04:16:24.580Z,98799.72
2023-04-10T04:18:59.020Z,98798.84
2023-04-10T04:21:40.378Z,98802.41
2023-04-10T04:24:20.353Z,98807.59
2023-04-10T04:26:56.411Z,98805.88
2023-04-10T04:29:41.597Z,98808.56
2023-04-10T04:32:16.795Z,98811.19
2023-04-10T04:35:02.725Z,98810.38
2023-04-10T04:37:48.293Z,98820.94
2023-04-10T04:40:17.851Z,98813.88
2023-04-10T04:43:07.359Z,98822.72
2023-04-10T04:45:52.661Z,98825.34
2023-04-10T04:48:39.571Z,98821.88
2023-04-10T04:51:32.445Z,98824.50
2023-04-10T04:54:05.326Z,98826.28
2023-04-10T04:56:41.082Z,98828.97
2023-04-10T04:59:22.661Z,98826.41
2023-04-10T05:02:03.249Z,98822.91
2023-04-10T05:04:42.140Z,98823.75
2023-04-10T05:07:21.145Z,98821.09
2023-04-10T05:10:09.162Z,98810.53
2023-04-10T05:12:54.698Z,98815.88
2023-04-10T05:15:25.927Z,98816.72
2023-04-10T05:18:14.103Z,98817.50
2023-04-10T05:21:01.222Z,98822.84
2023-04-10T05:23:46.537Z,98819.31
2023-04-10T05:26:42.669Z,98827.16
2023-04-10T05:29:25.439Z,98816.53
2023-04-10T05:32:12.546Z,98820.81
2023-04-10T05:34:51.381Z,98813.66
2023-04-10T05:37:34.733Z,98821.41
2023-04-10T05:40:21.358Z,98818.34
2023-04-10T05:42:57.634Z,98842.53
2023-04-10T05:45:51.736Z,98828.78
2023-04-10T05:48:39.037Z,98822.97
2023-04-10T05:51:22.963Z,98832.16
2023-04-10T05:54:19.327Z,98826.53
2023-04-10T05:57:04.621Z,98834.81
2023-04-10T05:59:33.940Z,98827.38
2023-04-10T06:02:12.173Z,98826.03
2023-04-10T06:04:39.617Z,98823.28
2023-04-10T06:07:06.935Z,98837.63
2023-04-10T06:09:33.851Z,98825.09
2023-04-10T06:12:01.374Z,98823.91
2023-04-10T06:14:28.221Z,98826.94
2023-04-10T06:16:56.657Z,98823.78
2023-04-10T06:19:23.436Z,98816.59
2023-04-10T06:21:53.140Z,98812.19
2023-04-10T06:24:21.082Z,98811.53
2023-04-10T06:26:47.787Z,98805.09
2023-04-10T06:29:14.539Z,98800.97
2023-04-10T06:31:41.258Z,98809.28
2023-04-10T06:34:08.436Z,98806.28
2023-04-10T06:36:37.901Z,98788.97
2023-04-10T06:39:06.675Z,98783.72
2023-04-10T06:41:33.652Z,98793.06
2023-04-10T06:44:29.336Z,98792.78
2023-04-10T06:46:56.077Z,98786.22
2023-04-10T06:49:23.072Z,98780.63
2023-04-10T06:51:49.853Z,98783.72
2023-04-10T06:54:16.700Z,98764.00
2023-04-10T06:56:43.556Z,98765.47
2023-04-10T06:59:10.416Z,98765.44
2023-04-10T07:01:37.472Z,98767.47
2023-04-10T07:04:04.439Z,98753.16
2023-04-10T07:06:31.554Z,98748.31
2023-04-10T07:08:58.298Z,98746.41
2023-04-10T07:11:25.357Z,98740.56
2023-04-10T07:13:53.914Z,98738.22
2023-04-10T07:16:20.874Z,98727.38
2023-04-10T07:18:47.790Z,98728.19
2023-04-10T07:21:14.614Z,98741.88
2023-04-10T07:23:41.405Z,98748.66
2023-04-10T07:26:08.254Z,98736.78
2023-04-10T07:28:35.042Z,98738.13
2023-04-10T07:31:01.888Z,98746.75
2023-04-10T07:33:28.702Z,98742.63
2023-04-10T07:35:55.605Z,98728.69
2023-04-10T07:38:24.162Z,98731.59
2023-04-10T07:40:56.535Z,98731.97
2023-04-10T07:43:23.412Z,98735.91
2023-04-10T07:45:50.432Z,98723.47
2023-04-10T07:48:17.252Z,98727.97
2023-04-10T07:50:44.029Z,98715.34
2023-04-10T07:53:10.948Z,98718.91
2023-04-10T07:55:42.950Z,98715.94
2023-04-10T07:58:10.288Z,98720.25
2023-04-10T08:00:37.536Z,98708.22
2023-04-10T08:03:05.688Z,98710.47
2023-04-10T08:05:32.982Z,98718.75
2023-04-10T08:07:59.870Z,98715.06
2023-04-10T08:10:26.514Z,98706.50
2023-04-10T08:12:53.249Z,98703.75
2023-04-10T08:15:19.928Z,98705.31
2023-04-10T08:17:46.719Z,98698.00
2023-04-10T08:20:16.088Z,98684.56
2023-04-10T08:22:42.748Z,98694.00
2023-04-10T08:25:09.822Z,98696.56
2023-04-10T08:27:36.959Z,98685.34
2023-04-10T08:30:04.354Z,98690.91
2023-04-10T08:32:31.236Z,98690.69
2023-04-10T08:34:58.279Z,98680.19
2023-04-10T08:37:26.437Z,98692.75
2023-04-10T08:39:53.733Z,98686.44
2023-04-10T08:42:20.645Z,98685.78
2023-04-10T08:44:49.738Z,98680.47
2023-04-10T08:47:20.647Z,98675.63
2023-04-10T08:49:57.495Z,98668.88
2023-04-10T08:52:31.236Z,98666.81
2023-04-10T08:55:02.592Z,98673.22
2023-04-10T08:57:29.787Z,98676.09
2023-04-10T08:59:58.555Z,98676.00
2023-04-10T09:02:26.345Z,98672.84
2023-04-10T09:04:55.248Z,98668.19
2023-04-10T09:07:23.456Z,98663.25
2023-04-10T09:09:50.244Z,98658.13
2023-04-10T09:12:16.970Z,98652.47
2023-04-10T09:14:43.745Z,98656.69
2023-04-10T09:17:20.599Z,98666.53
2023-04-10T09:19:55.643Z,98667.72
2023-04-10T09:22:36.222Z,98668.81
2023-04-10T09:25:04.352Z,98663.59
2023-04-10T09:27:35.157Z,98669.97
2023-04-10T09:30:02.703Z,98656.13
2023-04-10T09:32:36.738Z,98647.38
2023-04-10T09:35:05.038Z,98657.19
2023-04-10T09:37:36.105Z,98651.28
2023-04-10T09:40:04.134Z,98653.06
2023-04-10T09:42:32.939Z,98654.78
2023-04-10T09:45:00.173Z,98655.72
2023-04-10T09:47:28.171Z,98661.63
2023-04-10T09:49:57.473Z,98650.28
2023-04-10T09:52:29.714Z,98648.03
2023-04-10T09:54:57.500Z,98637.38
2023-04-10T09:57:26.118Z,98632.06
2023-04-10T09:59:55.010Z,98629.16
2023-04-10T10:02:28.773Z,98629.38
2023-04-10T10:04:57.355Z,98641.88
2023-04-10T10:07:24.334Z,98646.50
2023-04-10T10:09:52.532Z,98637.16
2023-04-10T10:12:26.431Z,98630.00
2023-04-10T10:15:09.002Z,98608.06
2023-04-10T10:17:49.381Z,98604.19
2023-04-10T10:20:18.222Z,98621.13
2023-04-10T10:22:46.477Z,98618.44
2023-04-10T10:25:13.542Z,98607.81
2023-04-10T10:27:41.795Z,98606.06
2023-04-10T10:30:28.086Z,98606.53
2023-04-10T10:32:57.589Z,98615.25
2023-04-10T10:35:28.714Z,98609.31
2023-04-10T10:37:59.786Z,98605.88
2023-04-10T10:40:40.318Z,98593.66
2023-04-10T10:43:25.777Z,98599.09
2023-04-10T10:46:01.996Z,98592.06
2023-04-10T10:48:28.839Z,98596.22
2023-04-10T10:50:58.913Z,98592.28
2023-04-10T10:53:34.710Z,98591.47
2023-04-10T10:56:19.515Z,98582.16
2023-04-10T10:58:47.238Z,98581.03
2023-04-10T11:01:15.091Z,98565.78
2023-04-10T11:03:44.414Z,98569.72
2023-04-10T11:06:17.175Z,98565.91
2023-04-10T11:08:48.956Z,98561.91
2023-04-10T11:11:18.361Z,98565.72
2023-04-10T11:13:52.120Z,98549.47
2023-04-10T11:16:20.755Z,98550.19
2023-04-10T11:18:59.340Z,98552.75
2023-04-10T11:22:00.190Z,98550.44
2023-04-10T11:24:27.079Z,98556.38
2023-04-10T11:26:53.992Z,98551.78
2023-04-10T11:29:26.660Z,98545.31
2023-04-10T11:32:00.991Z,98542.72
2023-04-10T11:34:28.479Z,98546.59
2023-04-10T11:36:55.297Z,98532.78
2023-04-10T11:39:22.301Z,98519.22
2023-04-10T11:41:51.397Z,98516.66
2023-04-10T11:44:35.211Z,98523.94
2023-04-10T11:47:02.100Z,98528.38
2023-04-10T11:49:32.770Z,98527.81
2023-04-10T11:51:59.695Z,98526.69
2023-04-10T11:54:28.410Z,98520.69
2023-04-10T11:57:01.143Z,98516.63
2023-04-10T11:59:29.355Z,98517.28
2023-04-10T12:02:07.843Z,98522.03
2023-04-10T12:04:35.526Z,98528.66
2023-04-10T12:07:02.656Z,98513.59
2023-04-10T12:09:32.339Z,98531.28
2023-04-10T12:12:03.360Z,98533.28
2023-04-10T12:14:36.907Z,98537.97
2023-04-10T12:17:05.502Z,98527.88
2023-04-10T12:19:33.768Z,98522.56
2023-04-10T12:22:02.857Z,98522.81
2023-04-10T12:24:49.607Z,98522.41
2023-04-10T12:27:23.916Z,98523.00
2023-04-10T12:29:53.124Z,98513.34
2023-04-10T12:32:20.682Z,98518.44
2023-04-10T12:34:52.056Z,98514.44
2023-04-10T12:37:19.923Z,98504.38
2023-04-10T12:39:46.856Z,98505.81
2023-04-10T12:42:22.904Z,98518.09
2023-04-10T12:44:51.442Z,98507.44
2023-04-10T12:47:18.187Z,98495.78
2023-04-10T12:50:08.701Z,98498.94
2023-04-10T12:52:36.365Z,98505.97
2023-04-10T12:55:15.413Z,98504.28
2023-04-10T12:57:44.412Z,98496.81
2023-04-10T13:00:13.740Z,98495.50
2023-04-10T13:02:41.381Z,98486.44
2023-04-10T13:05:09.119Z,98495.66
2023-04-10T13:07:37.297Z,98493.41
2023-04-10T13:10:05.839Z,98488.06
2023-04-10T13:12:34.729Z,98488.44
2023-04-10T13:15:01.931Z,98476.72
2023-04-10T13:17:28.880Z,98479.19
2023-04-10T13:19:55.716Z,98472.91
2023-04-10T13:22:22.602Z,98483.66
2023-04-10T13:24:49.387Z,98470.97
2023-04-10T13:27:16.183Z,98472.63
2023-04-10T13:29:43.386Z,98462.91
2023-04-10T13:32:10.747Z,98459.88
2023-04-10T13:34:37.623Z,98455.94
2023-04-10T13:37:04.632Z,98457.47
2023-04-10T13:39:31.825Z,98456.03
2023-04-10T13:41:59.466Z,98446.91
2023-04-10T13:44:26.533Z,98447.31
2023-04-10T13:46:53.808Z,98445.03
2023-04-10T13:49:22.090Z,98445.81
2023-04-10T13:51:49.078Z,98443.72
2023-04-10T13:54:18.840Z,98430.75
2023-04-10T13:56:46.436Z,98423.38
2023-04-10T13:59:13.698Z,98424.28
2023-04-10T14:01:40.969Z,98419.78
2023-04-10T14:04:08.361Z,98410.19
2023-04-10T14:06:35.301Z,98400.66
2023-04-10T14:09:02.162Z,98401.44
2023-04-10T14:11:28.911Z,98398.19
2023-04-10T14:13:55.776Z,98406.41
2023-04-10T14:16:22.516Z,98400.13
2023-04-10T14:18:49.225Z,98404.31
2023-04-10T14:21:16.554Z,98405.63
2023-04-10T14:23:43.572Z,98391.19
2023-04-10T14:26:10.287Z,98380.28
2023-04-10T14:28:37.012Z,98370.28
2023-04-10T14:31:04.838Z,98355.50
2023-04-10T14:33:31.801Z,98334.13
2023-04-10T14:35:58.609Z,98338.78
2023-04-10T14:38:25.333Z,98338.78
2023-04-10T14:40:53.738Z,98353.03
2023-04-10T14:45:47.734Z,98339.34
2023-04-10T14:48:14.792Z,98349.25
2023-04-10T14:50:41.627Z,98350.25
2023-04-10T14:53:09.958Z,98357.88
2023-04-10T14:55:37.351Z,98359.88
2023-04-10T14:58:06.576Z,98363.41
2023-04-10T15:00:33.267Z,98368.13
2023-04-10T15:03:00.406Z,98371.91
2023-04-10T15:05:27.949Z,98374.88
2023-04-10T15:07:55.143Z,98373.41
2023-04-10T15:10:22.085Z,98378.22
2023-04-10T15:12:48.862Z,98366.28
2023-04-10T15:15:15.769Z,98344.44
2023-04-10T15:17:42.603Z,98341.63
2023-04-10T15:20:09.982Z,98328.25
2023-04-10T15:22:36.715Z,98322.63
2023-04-10T15:25:03.695Z,98312.25
2023-04-10T15:27:30.663Z,98313.09
2023-04-10T15:29:57.575Z,98317.88
2023-04-10T15:32:24.347Z,98314.13
2023-04-10T15:34:51.040Z,98321.00
2023-04-10T15:37:17.705Z,98307.78
2023-04-10T15:39:44.435Z,98311.06
2023-04-10T15:42:11.180Z,98312.00
2023-04-10T15:44:37.934Z,98307.59
2023-04-10T15:47:04.706Z,98299.34
2023-04-10T15:49:37.995Z,98301.75
2023-04-10T15:52:08.532Z,98296.56
2023-04-10T15:54:35.773Z,98286.25
2023-04-10T15:57:03.533Z,98279.56
2023-04-10T15:59:30.355Z,98272.03
2023-04-10T16:01:57.226Z,98280.22
2023-04-10T16:04:24.360Z,98289.84
2023-04-10T16:06:51.294Z,98285.63
2023-04-10T16:11:48.324Z,98306.41
2023-04-10T16:14:15.073Z,98298.47
2023-04-10T16:16:41.812Z,98308.25
2023-04-10T16:19:09.816Z,98306.03
2023-04-10T16:21:36.893Z,98311.19
2023-04-10T16:24:04.202Z,98305.72
2023-04-10T16:26:31.131Z,98292.22
2023-04-10T16:28:57.850Z,98287.59
2023-04-10T16:31:24.725Z,98282.81
2023-04-10T16:33:51.394Z,98269.22
2023-04-10T16:36:18.113Z,98279.31
2023-04-10T16:38:45.250Z,98268.06
2023-04-10T16:41:12.639Z,98262.91
2023-04-10T16:43:39.545Z,98265.38
2023-04-10T16:46:07.393Z,98267.09
2023-04-10T16:48:36.185Z,98249.13
2023-04-10T16:51:06.157Z,98245.47
2023-04-10T16:53:35.715Z,98238.34
2023-04-10T16:56:04.833Z,98247.16
2023-04-10T16:58:33.805Z,98252.75
2023-04-10T17:01:00.729Z,98249.22
2023-04-10T17:03:27.625Z,98233.81
2023-04-10T17:05:54.379Z,98230.78
2023-04-10T17:08:21.082Z,98230.91
2023-04-10T17:10:47.805Z,98213.47
2023-04-10T17:13:14.638Z,98193.31
2023-04-10T17:15:41.381Z,98185.31
2023-04-10T17:18:08.408Z,98181.41
2023-04-10T17:20:37.035Z,98187.84
2023-04-10T17:23:03.980Z,98183.97
2023-04-10T17:25:30.976Z,98178.50
2023-04-10T17:27:57.987Z,98187.56
2023-04-10T17:30:24.765Z,98194.81
2023-04-10T17:32:51.605Z,98188.69
2023-04-10T17:35:18.534Z,98198.28
2023-04-10T17:37:45.412Z,98201.97
2023-04-10T17:40:12.503Z,98193.28
2023-04-10T17:42:39.262Z,98201.81
2023-04-10T17:45:06.597Z,98198.41
2023-04-10T17:47:33.390Z,98207.06
2023-04-10T17:50:00.016Z,98196.06
2023-04-10T17:52:26.742Z,98207.91
2023-04-10T17:54:53.458Z,98218.84
2023-04-10T17:57:20.157Z,98209.81
2023-04-10T17:59:46.857Z,98199.28
2023-04-10T18:02:13.561Z,98195.13
2023-04-10T18:04:40.306Z,98187.81
2023-04-10T18:07:07.034Z,98172.88
2023-04-10T18:09:33.693Z,98170.22
2023-04-10T18:12:01.501Z,98182.91
2023-04-10T18:14:28.199Z,98200.63
2023-04-10T18:16:55.091Z,98213.31
2023-04-10T18:19:21.956Z,98209.56
2023-04-10T18:21:49.270Z,98206.78
2023-04-10T18:24:16.136Z,98209.72
2023-04-10T18:26:43.084Z,98220.50
2023-04-10T18:29:09.784Z,98229.06
2023-04-10T18:31:36.564Z,98231.16
2023-04-10T18:34:07.875Z,98230.34
2023-04-10T18:36:35.520Z,98237.72
2023-04-10T18:39:02.253Z,98231.06
2023-04-10T18:41:28.995Z,98211.31
2023-04-10T18:44:04.147Z,98209.47
2023-04-10T18:46:32.531Z,98210.41
2023-04-10T18:49:00.957Z,98205.78
2023-04-10T18:51:28.326Z,98199.28
2023-04-10T18:53:55.465Z,98209.56
2023-04-10T18:56:22.799Z,98210.44
2023-04-10T18:58:50.303Z,98205.09
2023-04-10T19:01:20.199Z,98186.72
2023-04-10T19:03:50.079Z,98189.69
2023-04-10T19:06:23.651Z,98187.78
2023-04-10T19:08:51.088Z,98185.22
2023-04-10T19:11:18.632Z,98185.97
2023-04-10T19:13:45.482Z,98176.72
2023-04-10T19:16:19.059Z,98176.69
2023-04-10T19:18:49.305Z,98182.44
2023-04-10T19:21:16.051Z,98174.63
2023-04-10T19:23:42.774Z,98185.44
2023-04-10T19:26:09.798Z,98182.50
2023-04-10T19:28:36.605Z,98186.66
2023-04-10T19:31:03.338Z,98178.13
2023-04-10T19:33:30.386Z,98175.63
2023-04-10T19:35:58.251Z,98169.34
2023-04-10T19:38:25.210Z,98172.28
2023-04-10T19:40:51.996Z,98161.94
2023-04-10T19:43:18.783Z,98168.09
2023-04-10T19:45:45.813Z,98164.72
2023-04-10T19:48:12.572Z,98153.75
2023-04-10T19:50:39.338Z,98143.84
2023-04-10T19:53:12.904Z,98148.00
2023-04-10T19:55:42.707Z,98139.41
2023-04-10T19:58:13.439Z,98121.09
2023-04-10T20:00:47.825Z,98135.97
2023-04-10T20:03:16.121Z,98124.84
2023-04-10T20:05:43.012Z,98139.69
2023-04-10T20:08:09.754Z,98129.44
2023-04-10T20:10:36.715Z,98131.72
2023-04-10T20:13:03.484Z,98115.84
2023-04-10T20:15:30.185Z,98123.97
2023-04-10T20:17:56.962Z,98116.22
2023-04-10T20:20:23.719Z,98139.31
2023-04-10T20:22:50.556Z,98143.69
2023-04-10T20:25:17.238Z,98139.53
2023-04-10T20:27:43.925Z,98139.31
2023-04-10T20:30:10.929Z,98138.34
2023-04-10T20:32:37.697Z,98137.38
2023-04-10T20:35:04.794Z,98123.09
2023-04-10T20:37:31.539Z,98134.19
2023-04-10T20:39:58.435Z,98145.00
2023-04-10T20:42:25.132Z,98153.44
2023-04-10T20:44:51.860Z,98143.66
2023-04-10T20:47:18.581Z,98124.25
2023-04-10T20:49:47.801Z,98109.47
2023-04-10T20:52:14.545Z,98104.66
2023-04-10T20:54:41.317Z,98090.09
2023-04-10T20:57:08.048Z,98090.63
2023-04-10T20:59:36.042Z,98070.97
2023-04-10T21:02:03.158Z,98071.00
2023-04-10T21:04:30.029Z,98062.56
2023-04-10T21:06:56.661Z,98062.03
2023-04-10T21:09:23.365Z,98060.03
2023-04-10T21:11:50.117Z,98052.38
2023-04-10T21:14:16.881Z,98052.41
2023-04-10T21:16:45.756Z,98049.16
2023-04-10T21:19:12.549Z,98046.69
2023-04-10T21:21:42.030Z,98051.31
2023-04-10T21:24:08.747Z,98061.66
2023-04-10T21:26:35.527Z,98042.88
2023-04-10T21:29:02.273Z,98042.72
2023-04-10T21:31:29.045Z,98022.84
2023-04-10T21:33:55.811Z,98006.91
2023-04-10T21:36:22.494Z,97997.47
2023-04-10T21:38:49.198Z,98009.44
2023-04-10T21:41:15.951Z,98022.22
2023-04-10T21:43:43.192Z,98050.97
2023-04-10T21:46:10.051Z,98043.31
2023-04-10T21:48:36.988Z,98048.63
2023-04-10T21:51:03.903Z,98060.09
2023-04-10T21:53:30.767Z,98066.03
2023-04-10T21:55:57.978Z,98070.72
2023-04-10T21:58:24.663Z,98084.31
2023-04-10T22:00:54.533Z,98081.09
2023-04-10T22:03:22.232Z,98088.31
2023-04-10T22:05:50.162Z,98113.59
2023-04-10T22:08:19.822Z,98121.44
2023-04-10T22:10:50.435Z,98120.22
2023-04-10T22:13:29.741Z,98127.53
2023-04-10T22:15:57.676Z,98114.38
2023-04-10T22:18:24.336Z,98125.69
2023-04-10T22:20:51.099Z,98132.84
2023-04-10T22:23:17.746Z,98133.44
2023-04-10T22:25:44.466Z,98151.34
2023-04-10T22:28:11.187Z,98152.25
2023-04-10T22:30:37.880Z,98154.44
2023-04-10T22:33:04.663Z,98144.00
2023-04-10T22:35:31.454Z,98154.44
2023-04-10T22:37:58.258Z,98159.09
2023-04-10T22:40:25.471Z,98145.06
2023-04-10T22:42:53.330Z,98137.84
2023-04-10T22:45:20.280Z,98145.94
2023-04-10T22:47:47.137Z,98142.09
2023-04-10T22:50:13.885Z,98151.47
2023-04-10T22:52:40.633Z,98170.38
2023-04-10T22:55:07.931Z,98169.16
2023-04-10T22:57:35.837Z,98155.31
2023-04-10T23:00:02.653Z,98129.84
2023-04-10T23:02:31.334Z,98109.41
2023-04-10T23:04:58.442Z,98111.19
2023-04-10T23:07:25.884Z,98119.03
2023-04-10T23:09:52.602Z,98114.91
2023-04-10T23:12:19.347Z,98106.66
2023-04-10T23:14:46.094Z,98079.47
2023-04-10T23:17:12.854Z,98085.69
2023-04-10T23:19:39.580Z,98082.78
2023-04-10T23:22:07.247Z,98084.22
2023-04-10T23:24:34.019Z,98077.69
2023-04-10T23:27:00.690Z,98075.78
2023-04-10T23:29:30.886Z,98065.19
2023-04-10T23:32:00.666Z,98070.19
2023-04-10T23:34:27.525Z,98071.53
2023-04-10T23:36:54.646Z,98073.28
2023-04-10T23:39:21.329Z,98071.03
2023-04-10T23:41:48.105Z,98069.50
2023-04-10T23:44:14.768Z,98063.66
2023-04-10T23:46:41.528Z,98070.09
2023-04-10T23:49:08.405Z,98079.13
2023-04-10T23:51:35.074Z,98091.63
2023-04-10T23:54:01.812Z,98096.22
2023-04-10T23:56:29.405Z,98095.72
2023-04-10T23:58:56.419Z,98073.28
